Donnerstag, Januar 18, 2007

Orkan Kyrill METAR EDDC - 2007-01-18 16:20 Zulu

Dresden-Klotzsche:

METAR EDDC 181620Z 23026G44KT 9999 SCT037 OVC130 14/07 Q0986 NOSIG

via wunderground.com

Technorati Tags: , , , , , ,

Kommentare:

Frank hat gesagt…

das geht ja ;)

EDMA 181850Z 24034G50KT 9999 BKN033 OVC100 12/06 Q1003
EDDM 181850Z 24036G53KT 9999 BKN037 13/06 Q1002 NOSIG

Quelle: NOAA

wenigstens ist die Sicht gut *SCNR*

Frank Kerkau hat gesagt…

Sag ich doch, in der Spitze hatten wir bislang Gusts 66 kt also ca. 120 km/h; mit Hurrikans nicht zu vergleichen.